Springfield, Illinois
Current Conditions -  °F | °C
As of 6:04 PM on Wednesday 26 Nov 2014 (Local Time) from KSPI Reporting Station
Light Snow Light Snow  
Wind Chill: -6°   Ceiling: 1200
Heat Index: -1°   Visibility: 1mi
Dew Point: -2°   Wind: 9mph
Humidity: 96%   Direction: 80°E
Pressure: 30.08"   Gusts: NA
Location:  39.8°N, 89.64°W
Report Text: KSPI 270004Z 08008KT 1SM R04/6000VP6000FT -SN BR FEW006 OVC012 M01/M02 A3008 RMK AO2 P0001 T10111017
Loading
Personal Weather Stations






























Interactive Weather Map New forecast layout! Learn more

10-Day Weather Forecast

Advertisements
Track Severe Weather on mobile